sensor_id;sensor_type;location;lat;lon;timestamp;pressure;altitude;pressure_sealevel;temperature;humidity
71621;BME280;59471;42.254;23.102;2023-04-21T00:01:28;95569.59;;;6.88;85.96
71621;BME280;59471;42.254;23.102;2023-04-21T00:03:54;95566.66;;;6.91;85.96
71621;BME280;59471;42.254;23.102;2023-04-21T00:06:20;95562.28;;;6.91;85.92
71621;BME280;59471;42.254;23.102;2023-04-21T00:08:48;95559.97;;;6.96;85.95
71621;BME280;59471;42.254;23.102;2023-04-21T00:11:14;95560.47;;;6.92;86.18
71621;BME280;59471;42.254;23.102;2023-04-21T00:13:40;95564.38;;;6.80;85.83
71621;BME280;59471;42.254;23.102;2023-04-21T00:16:06;95565.16;;;6.80;85.71
71621;BME280;59471;42.254;23.102;2023-04-21T00:18:31;95563.41;;;6.89;85.32
71621;BME280;59471;42.254;23.102;2023-04-21T00:20:57;95559.16;;;6.80;86.05
71621;BME280;59471;42.254;23.102;2023-04-21T00:23:23;95552.00;;;6.73;86.79
71621;BME280;59471;42.254;23.102;2023-04-21T00:25:48;95563.69;;;6.78;87.00
71621;BME280;59471;42.254;23.102;2023-04-21T00:28:14;95562.75;;;6.79;86.78
71621;BME280;59471;42.254;23.102;2023-04-21T00:30:40;95561.59;;;6.73;87.06
71621;BME280;59471;42.254;23.102;2023-04-21T00:33:05;95569.41;;;6.81;87.62
71621;BME280;59471;42.254;23.102;2023-04-21T00:35:31;95561.22;;;6.52;87.66
71621;BME280;59471;42.254;23.102;2023-04-21T00:37:56;95556.53;;;6.63;87.72
71621;BME280;59471;42.254;23.102;2023-04-21T00:40:22;95550.66;;;6.61;87.48
71621;BME280;59471;42.254;23.102;2023-04-21T00:42:48;95551.97;;;6.57;87.73
71621;BME280;59471;42.254;23.102;2023-04-21T00:45:13;95556.19;;;6.58;87.64
71621;BME280;59471;42.254;23.102;2023-04-21T00:47:40;95553.25;;;6.53;89.57
71621;BME280;59471;42.254;23.102;2023-04-21T00:50:06;95550.91;;;6.25;92.79
71621;BME280;59471;42.254;23.102;2023-04-21T00:52:33;95554.84;;;6.38;89.11
71621;BME280;59471;42.254;23.102;2023-04-21T00:54:59;95549.97;;;6.35;88.16
71621;BME280;59471;42.254;23.102;2023-04-21T00:57:26;95551.94;;;6.49;87.46
71621;BME280;59471;42.254;23.102;2023-04-21T00:59:53;95548.69;;;6.47;87.83
71621;BME280;59471;42.254;23.102;2023-04-21T01:02:19;95548.03;;;6.45;86.95
71621;BME280;59471;42.254;23.102;2023-04-21T01:04:45;95545.03;;;6.15;90.36
71621;BME280;59471;42.254;23.102;2023-04-21T01:07:11;95549.66;;;6.38;92.11
71621;BME280;59471;42.254;23.102;2023-04-21T01:09:36;95549.00;;;6.44;92.58
71621;BME280;59471;42.254;23.102;2023-04-21T01:12:09;95546.28;;;6.62;91.41
71621;BME280;59471;42.254;23.102;2023-04-21T01:14:37;95553.59;;;6.58;91.04
71621;BME280;59471;42.254;23.102;2023-04-21T01:17:04;95543.66;;;6.62;91.53
71621;BME280;59471;42.254;23.102;2023-04-21T01:19:32;95540.94;;;6.80;90.73
71621;BME280;59471;42.254;23.102;2023-04-21T01:21:59;95545.00;;;6.82;90.24
71621;BME280;59471;42.254;23.102;2023-04-21T01:27:15;95543.81;;;6.44;92.87
71621;BME280;59471;42.254;23.102;2023-04-21T01:29:48;95540.22;;;6.45;92.91
71621;BME280;59471;42.254;23.102;2023-04-21T01:32:18;95548.06;;;6.53;92.14
71621;BME280;59471;42.254;23.102;2023-04-21T01:34:47;95552.56;;;6.43;91.60
71621;BME280;59471;42.254;23.102;2023-04-21T01:37:19;95541.19;;;6.36;91.40
71621;BME280;59471;42.254;23.102;2023-04-21T01:39:50;95534.34;;;6.35;91.81
71621;BME280;59471;42.254;23.102;2023-04-21T01:42:19;95537.94;;;6.42;91.95
71621;BME280;59471;42.254;23.102;2023-04-21T01:44:47;95541.25;;;6.60;91.80
71621;BME280;59471;42.254;23.102;2023-04-21T01:47:14;95535.19;;;6.52;91.78
71621;BME280;59471;42.254;23.102;2023-04-21T01:49:40;95534.75;;;6.56;90.73
71621;BME280;59471;42.254;23.102;2023-04-21T01:52:06;95534.31;;;6.18;91.97
71621;BME280;59471;42.254;23.102;2023-04-21T01:54:32;95539.78;;;6.07;91.92
71621;BME280;59471;42.254;23.102;2023-04-21T01:56:57;95541.72;;;6.05;90.85
71621;BME280;59471;42.254;23.102;2023-04-21T01:59:23;95539.25;;;5.95;92.42
71621;BME280;59471;42.254;23.102;2023-04-21T02:01:48;95541.59;;;5.80;93.75
71621;BME280;59471;42.254;23.102;2023-04-21T02:04:14;95541.28;;;5.84;93.36
71621;BME280;59471;42.254;23.102;2023-04-21T02:06:40;95548.03;;;5.68;92.99
71621;BME280;59471;42.254;23.102;2023-04-21T02:09:05;95546.28;;;5.77;92.71
71621;BME280;59471;42.254;23.102;2023-04-21T02:11:31;95539.13;;;5.79;92.68
71621;BME280;59471;42.254;23.102;2023-04-21T02:13:56;95540.97;;;5.87;93.34
71621;BME280;59471;42.254;23.102;2023-04-21T02:16:22;95540.75;;;6.06;91.92
71621;BME280;59471;42.254;23.102;2023-04-21T02:18:52;95544.66;;;6.10;90.90
71621;BME280;59471;42.254;23.102;2023-04-21T02:21:20;95534.53;;;5.99;90.73
71621;BME280;59471;42.254;23.102;2023-04-21T02:23:45;95537.03;;;6.09;90.12
71621;BME280;59471;42.254;23.102;2023-04-21T02:26:11;95538.50;;;6.11;90.35
71621;BME280;59471;42.254;23.102;2023-04-21T02:28:37;95535.84;;;5.95;89.55
71621;BME280;59471;42.254;23.102;2023-04-21T02:31:02;95543.31;;;5.98;89.96
71621;BME280;59471;42.254;23.102;2023-04-21T02:33:28;95545.34;;;6.12;89.55
71621;BME280;59471;42.254;23.102;2023-04-21T02:35:54;95544.72;;;6.18;89.15
71621;BME280;59471;42.254;23.102;2023-04-21T02:38:19;95546.91;;;5.97;89.04
71621;BME280;59471;42.254;23.102;2023-04-21T02:40:45;95548.22;;;6.01;89.42
71621;BME280;59471;42.254;23.102;2023-04-21T02:43:10;95546.06;;;5.70;91.83
71621;BME280;59471;42.254;23.102;2023-04-21T02:45:38;95539.44;;;5.76;91.95
71621;BME280;59471;42.254;23.102;2023-04-21T02:48:03;95546.09;;;5.96;91.74
71621;BME280;59471;42.254;23.102;2023-04-21T02:50:29;95557.63;;;6.02;92.14
71621;BME280;59471;42.254;23.102;2023-04-21T02:52:55;95544.41;;;6.21;91.12
71621;BME280;59471;42.254;23.102;2023-04-21T02:55:20;95541.72;;;6.05;91.42
71621;BME280;59471;42.254;23.102;2023-04-21T02:57:47;95547.63;;;6.15;90.69
71621;BME280;59471;42.254;23.102;2023-04-21T03:00:13;95541.94;;;6.20;90.45
71621;BME280;59471;42.254;23.102;2023-04-21T03:02:39;95544.63;;;6.02;91.91
71621;BME280;59471;42.254;23.102;2023-04-21T03:05:05;95545.06;;;6.32;91.07
71621;BME280;59471;42.254;23.102;2023-04-21T03:07:31;95533.19;;;6.29;91.67
71621;BME280;59471;42.254;23.102;2023-04-21T03:09:57;95547.69;;;6.32;91.56
71621;BME280;59471;42.254;23.102;2023-04-21T03:12:22;95539.13;;;6.05;93.92
71621;BME280;59471;42.254;23.102;2023-04-21T03:14:48;95547.63;;;6.23;91.21
71621;BME280;59471;42.254;23.102;2023-04-21T03:17:13;95545.38;;;6.29;89.57
71621;BME280;59471;42.254;23.102;2023-04-21T03:19:39;95545.75;;;6.34;89.47
71621;BME280;59471;42.254;23.102;2023-04-21T03:22:05;95549.69;;;6.03;90.53
71621;BME280;59471;42.254;23.102;2023-04-21T03:24:31;95545.28;;;5.96;90.67
71621;BME280;59471;42.254;23.102;2023-04-21T03:26:56;95549.28;;;5.90;91.22
71621;BME280;59471;42.254;23.102;2023-04-21T03:29:22;95553.31;;;5.85;90.63
71621;BME280;59471;42.254;23.102;2023-04-21T03:31:48;95557.50;;;5.77;90.52
71621;BME280;59471;42.254;23.102;2023-04-21T03:34:13;95556.69;;;5.51;91.02
71621;BME280;59471;42.254;23.102;2023-04-21T03:36:39;95559.59;;;5.48;91.57
71621;BME280;59471;42.254;23.102;2023-04-21T03:39:05;95567.78;;;5.61;91.70
71621;BME280;59471;42.254;23.102;2023-04-21T03:41:34;95567.03;;;5.69;91.77
71621;BME280;59471;42.254;23.102;2023-04-21T03:44:00;95572.72;;;5.72;90.52
71621;BME280;59471;42.254;23.102;2023-04-21T03:46:25;95563.13;;;5.73;90.29
71621;BME280;59471;42.254;23.102;2023-04-21T03:48:51;95573.44;;;5.56;89.57
71621;BME280;59471;42.254;23.102;2023-04-21T03:51:16;95570.44;;;5.69;90.57
71621;BME280;59471;42.254;23.102;2023-04-21T03:53:42;95575.22;;;5.82;89.63
71621;BME280;59471;42.254;23.102;2023-04-21T03:56:08;95574.72;;;5.78;88.59
71621;BME280;59471;42.254;23.102;2023-04-21T03:58:34;95584.59;;;6.01;87.82
71621;BME280;59471;42.254;23.102;2023-04-21T04:01:00;95579.72;;;5.98;87.84
71621;BME280;59471;42.254;23.102;2023-04-21T04:03:26;95578.41;;;5.94;88.54
71621;BME280;59471;42.254;23.102;2023-04-21T04:05:51;95582.97;;;5.48;89.20
71621;BME280;59471;42.254;23.102;2023-04-21T04:08:17;95587.94;;;5.67;89.16
71621;BME280;59471;42.254;23.102;2023-04-21T04:10:43;95582.84;;;5.57;89.04
71621;BME280;59471;42.254;23.102;2023-04-21T04:13:08;95587.13;;;5.67;88.96
71621;BME280;59471;42.254;23.102;2023-04-21T04:15:34;95585.41;;;5.75;88.02
71621;BME280;59471;42.254;23.102;2023-04-21T04:17:59;95591.72;;;5.73;88.24
71621;BME280;59471;42.254;23.102;2023-04-21T04:20:26;95587.59;;;5.62;89.15
71621;BME280;59471;42.254;23.102;2023-04-21T04:22:51;95590.81;;;5.56;90.51
71621;BME280;59471;42.254;23.102;2023-04-21T04:25:17;95598.25;;;5.51;90.24
71621;BME280;59471;42.254;23.102;2023-04-21T04:27:42;95597.13;;;5.53;90.65
71621;BME280;59471;42.254;23.102;2023-04-21T04:30:09;95599.09;;;5.33;92.05
71621;BME280;59471;42.254;23.102;2023-04-21T04:32:35;95597.41;;;5.24;92.52
71621;BME280;59471;42.254;23.102;2023-04-21T04:35:07;95606.69;;;5.27;92.66
71621;BME280;59471;42.254;23.102;2023-04-21T04:37:37;95604.44;;;5.32;92.27
71621;BME280;59471;42.254;23.102;2023-04-21T04:40:05;95598.53;;;5.48;92.31
71621;BME280;59471;42.254;23.102;2023-04-21T04:42:36;95607.81;;;5.76;91.50
71621;BME280;59471;42.254;23.102;2023-04-21T04:45:04;95605.28;;;5.85;90.89
71621;BME280;59471;42.254;23.102;2023-04-21T04:47:32;95603.91;;;5.72;90.86
71621;BME280;59471;42.254;23.102;2023-04-21T04:50:01;95609.47;;;5.77;91.85
71621;BME280;59471;42.254;23.102;2023-04-21T04:52:27;95611.78;;;5.89;90.12
71621;BME280;59471;42.254;23.102;2023-04-21T04:54:53;95620.00;;;6.02;90.67
71621;BME280;59471;42.254;23.102;2023-04-21T04:57:19;95620.75;;;6.12;90.40
71621;BME280;59471;42.254;23.102;2023-04-21T04:59:44;95617.22;;;6.21;90.91
71621;BME280;59471;42.254;23.102;2023-04-21T05:02:10;95602.47;;;6.38;89.68
71621;BME280;59471;42.254;23.102;2023-04-21T05:04:37;95608.22;;;6.50;89.94
71621;BME280;59471;42.254;23.102;2023-04-21T05:07:03;95615.25;;;6.23;91.71
71621;BME280;59471;42.254;23.102;2023-04-21T05:09:30;95620.81;;;6.37;90.89
71621;BME280;59471;42.254;23.102;2023-04-21T05:11:56;95613.97;;;6.70;89.97
71621;BME280;59471;42.254;23.102;2023-04-21T05:14:21;95619.34;;;6.77;90.10
71621;BME280;59471;42.254;23.102;2023-04-21T05:16:47;95607.94;;;6.78;89.63
71621;BME280;59471;42.254;23.102;2023-04-21T05:19:12;95611.38;;;6.86;89.45
71621;BME280;59471;42.254;23.102;2023-04-21T05:21:38;95611.25;;;6.88;89.47
71621;BME280;59471;42.254;23.102;2023-04-21T05:24:03;95611.94;;;7.06;87.99
71621;BME280;59471;42.254;23.102;2023-04-21T05:26:29;95622.34;;;7.23;87.71
71621;BME280;59471;42.254;23.102;2023-04-21T05:28:56;95613.22;;;7.27;87.31
71621;BME280;59471;42.254;23.102;2023-04-21T05:31:23;95625.94;;;7.54;85.69
71621;BME280;59471;42.254;23.102;2023-04-21T05:33:49;95614.84;;;7.60;84.39
71621;BME280;59471;42.254;23.102;2023-04-21T05:36:15;95611.28;;;7.45;84.86
71621;BME280;59471;42.254;23.102;2023-04-21T05:38:41;95613.56;;;7.24;85.91
71621;BME280;59471;42.254;23.102;2023-04-21T05:41:06;95609.78;;;7.18;86.65
71621;BME280;59471;42.254;23.102;2023-04-21T05:43:33;95603.44;;;7.37;86.17
71621;BME280;59471;42.254;23.102;2023-04-21T05:46:04;95614.84;;;7.60;85.67
71621;BME280;59471;42.254;23.102;2023-04-21T05:48:33;95605.69;;;7.81;84.69
71621;BME280;59471;42.254;23.102;2023-04-21T05:51:09;95608.78;;;7.93;84.72
71621;BME280;59471;42.254;23.102;2023-04-21T05:53:39;95613.81;;;8.02;84.29
71621;BME280;59471;42.254;23.102;2023-04-21T05:56:07;95616.06;;;8.05;83.49
71621;BME280;59471;42.254;23.102;2023-04-21T05:58:32;95605.13;;;8.10;83.04
71621;BME280;59471;42.254;23.102;2023-04-21T06:00:58;95612.75;;;8.28;82.26
71621;BME280;59471;42.254;23.102;2023-04-21T06:03:23;95608.81;;;8.48;81.68
71621;BME280;59471;42.254;23.102;2023-04-21T06:05:55;95610.06;;;8.52;82.16
71621;BME280;59471;42.254;23.102;2023-04-21T06:08:21;95604.19;;;8.58;81.87
71621;BME280;59471;42.254;23.102;2023-04-21T06:10:47;95614.19;;;8.78;80.80
71621;BME280;59471;42.254;23.102;2023-04-21T06:13:13;95606.88;;;8.73;82.43
71621;BME280;59471;42.254;23.102;2023-04-21T06:15:38;95607.00;;;8.80;82.36
71621;BME280;59471;42.254;23.102;2023-04-21T06:18:04;95608.31;;;8.76;81.83
71621;BME280;59471;42.254;23.102;2023-04-21T06:20:29;95610.81;;;8.69;82.50
71621;BME280;59471;42.254;23.102;2023-04-21T06:22:55;95612.56;;;8.77;82.11
71621;BME280;59471;42.254;23.102;2023-04-21T06:25:20;95613.97;;;8.88;82.99
71621;BME280;59471;42.254;23.102;2023-04-21T06:27:46;95608.75;;;8.88;83.28
71621;BME280;59471;42.254;23.102;2023-04-21T06:30:12;95604.22;;;9.04;83.30
71621;BME280;59471;42.254;23.102;2023-04-21T06:32:39;95599.94;;;9.12;81.75
71621;BME280;59471;42.254;23.102;2023-04-21T06:35:04;95599.00;;;9.04;81.59
71621;BME280;59471;42.254;23.102;2023-04-21T06:37:30;95594.44;;;9.07;81.64
71621;BME280;59471;42.254;23.102;2023-04-21T06:39:56;95594.94;;;9.25;81.64
71621;BME280;59471;42.254;23.102;2023-04-21T06:42:21;95595.66;;;9.19;82.73
71621;BME280;59471;42.254;23.102;2023-04-21T06:44:47;95599.00;;;9.50;79.75
71621;BME280;59471;42.254;23.102;2023-04-21T06:47:12;95599.56;;;9.61;78.68
71621;BME280;59471;42.254;23.102;2023-04-21T06:49:38;95596.31;;;9.73;79.55
71621;BME280;59471;42.254;23.102;2023-04-21T06:52:04;95592.00;;;9.66;80.04
71621;BME280;59471;42.254;23.102;2023-04-21T06:54:29;95594.38;;;9.90;80.44
71621;BME280;59471;42.254;23.102;2023-04-21T06:56:55;95590.16;;;10.04;81.31
71621;BME280;59471;42.254;23.102;2023-04-21T06:59:21;95592.63;;;10.35;81.16
71621;BME280;59471;42.254;23.102;2023-04-21T07:01:47;95592.94;;;10.62;79.69
71621;BME280;59471;42.254;23.102;2023-04-21T07:04:19;95596.03;;;10.51;78.61
71621;BME280;59471;42.254;23.102;2023-04-21T07:06:45;95600.34;;;10.58;78.46
71621;BME280;59471;42.254;23.102;2023-04-21T07:09:11;95607.69;;;10.84;78.95
71621;BME280;59471;42.254;23.102;2023-04-21T07:11:37;95605.00;;;10.78;77.09
71621;BME280;59471;42.254;23.102;2023-04-21T07:14:02;95606.47;;;11.02;77.20
71621;BME280;59471;42.254;23.102;2023-04-21T07:16:28;95607.50;;;11.01;77.34
71621;BME280;59471;42.254;23.102;2023-04-21T07:18:54;95609.16;;;11.08;77.27
71621;BME280;59471;42.254;23.102;2023-04-21T07:21:19;95609.38;;;11.07;76.76
71621;BME280;59471;42.254;23.102;2023-04-21T07:23:45;95612.84;;;11.14;76.64
71621;BME280;59471;42.254;23.102;2023-04-21T07:26:10;95609.13;;;11.23;75.86
71621;BME280;59471;42.254;23.102;2023-04-21T07:28:37;95605.25;;;11.19;75.05
71621;BME280;59471;42.254;23.102;2023-04-21T07:31:04;95609.53;;;11.05;75.27
71621;BME280;59471;42.254;23.102;2023-04-21T07:33:30;95605.75;;;11.29;75.42
71621;BME280;59471;42.254;23.102;2023-04-21T07:35:55;95609.34;;;11.28;75.41
71621;BME280;59471;42.254;23.102;2023-04-21T07:38:21;95603.34;;;11.56;73.94
71621;BME280;59471;42.254;23.102;2023-04-21T07:40:46;95607.63;;;11.57;73.17
71621;BME280;59471;42.254;23.102;2023-04-21T07:43:12;95602.16;;;11.80;74.17
71621;BME280;59471;42.254;23.102;2023-04-21T07:45:37;95605.94;;;12.34;72.14
71621;BME280;59471;42.254;23.102;2023-04-21T07:48:03;95607.03;;;12.46;68.80
71621;BME280;59471;42.254;23.102;2023-04-21T07:50:32;95606.34;;;12.79;67.27
71621;BME280;59471;42.254;23.102;2023-04-21T07:52:59;95605.22;;;13.14;65.90
71621;BME280;59471;42.254;23.102;2023-04-21T07:55:26;95610.59;;;13.34;64.26
71621;BME280;59471;42.254;23.102;2023-04-21T07:57:52;95605.75;;;13.58;65.16
71621;BME280;59471;42.254;23.102;2023-04-21T08:00:17;95596.84;;;13.79;64.82
71621;BME280;59471;42.254;23.102;2023-04-21T08:02:43;95600.88;;;14.01;62.74
71621;BME280;59471;42.254;23.102;2023-04-21T08:05:09;95594.81;;;13.94;57.90
71621;BME280;59471;42.254;23.102;2023-04-21T08:07:34;95597.03;;;13.97;61.16
71621;BME280;59471;42.254;23.102;2023-04-21T08:10:00;95585.88;;;14.02;61.62
71621;BME280;59471;42.254;23.102;2023-04-21T08:12:26;95587.50;;;14.09;59.67
71621;BME280;59471;42.254;23.102;2023-04-21T08:14:52;95581.44;;;14.02;59.34
71621;BME280;59471;42.254;23.102;2023-04-21T08:17:18;95582.25;;;14.09;61.03
71621;BME280;59471;42.254;23.102;2023-04-21T08:19:43;95581.75;;;14.39;60.00
71621;BME280;59471;42.254;23.102;2023-04-21T08:22:09;95574.47;;;14.41;61.26
71621;BME280;59471;42.254;23.102;2023-04-21T08:24:35;95577.88;;;14.48;59.29
71621;BME280;59471;42.254;23.102;2023-04-21T08:27:00;95572.81;;;14.60;60.47
71621;BME280;59471;42.254;23.102;2023-04-21T08:29:28;95574.31;;;14.81;58.89
71621;BME280;59471;42.254;23.102;2023-04-21T08:31:54;95571.59;;;15.01;58.71
71621;BME280;59471;42.254;23.102;2023-04-21T08:34:19;95572.56;;;15.06;56.89
71621;BME280;59471;42.254;23.102;2023-04-21T08:36:45;95567.56;;;15.30;56.89
71621;BME280;59471;42.254;23.102;2023-04-21T08:39:13;95555.84;;;15.26;58.36
71621;BME280;59471;42.254;23.102;2023-04-21T08:41:39;95551.63;;;15.43;57.76
71621;BME280;59471;42.254;23.102;2023-04-21T08:44:06;95555.06;;;15.44;57.29
71621;BME280;59471;42.254;23.102;2023-04-21T08:46:32;95556.81;;;15.57;56.96
71621;BME280;59471;42.254;23.102;2023-04-21T08:48:59;95555.28;;;15.74;57.02
71621;BME280;59471;42.254;23.102;2023-04-21T08:51:26;95557.41;;;15.59;56.22
71621;BME280;59471;42.254;23.102;2023-04-21T08:53:55;95555.25;;;15.49;56.93
71621;BME280;59471;42.254;23.102;2023-04-21T08:56:25;95558.97;;;15.66;56.51
71621;BME280;59471;42.254;23.102;2023-04-21T08:58:51;95555.91;;;15.69;55.53
71621;BME280;59471;42.254;23.102;2023-04-21T09:01:17;95550.13;;;15.86;54.67
71621;BME280;59471;42.254;23.102;2023-04-21T09:03:43;95555.47;;;15.97;53.60
71621;BME280;59471;42.254;23.102;2023-04-21T09:06:09;95541.13;;;16.30;54.33
71621;BME280;59471;42.254;23.102;2023-04-21T09:08:52;95545.66;;;16.41;53.26
71621;BME280;59471;42.254;23.102;2023-04-21T09:11:20;95543.59;;;16.62;51.64
71621;BME280;59471;42.254;23.102;2023-04-21T09:13:46;95544.56;;;16.31;53.70
71621;BME280;59471;42.254;23.102;2023-04-21T09:16:19;95535.94;;;16.90;53.92
71621;BME280;59471;42.254;23.102;2023-04-21T09:18:45;95531.06;;;17.06;49.83
71621;BME280;59471;42.254;23.102;2023-04-21T09:21:13;95533.31;;;16.90;52.57
71621;BME280;59471;42.254;23.102;2023-04-21T09:23:45;95518.81;;;16.93;52.93
71621;BME280;59471;42.254;23.102;2023-04-21T09:26:12;95516.47;;;17.15;53.30
71621;BME280;59471;42.254;23.102;2023-04-21T09:28:42;95519.34;;;17.13;52.94
71621;BME280;59471;42.254;23.102;2023-04-21T09:31:17;95516.97;;;17.35;50.84
71621;BME280;59471;42.254;23.102;2023-04-21T09:33:48;95508.09;;;17.30;49.71
71621;BME280;59471;42.254;23.102;2023-04-21T09:36:23;95513.38;;;17.30;48.09
71621;BME280;59471;42.254;23.102;2023-04-21T09:41:19;95515.59;;;16.91;49.04
71621;BME280;59471;42.254;23.102;2023-04-21T09:43:46;95509.81;;;16.45;50.51
71621;BME280;59471;42.254;23.102;2023-04-21T09:46:14;95508.09;;;16.39;54.54
71621;BME280;59471;42.254;23.102;2023-04-21T09:48:43;95499.31;;;17.06;49.88
71621;BME280;59471;42.254;23.102;2023-04-21T09:51:16;95494.72;;;17.13;49.00
71621;BME280;59471;42.254;23.102;2023-04-21T09:53:44;95493.28;;;17.41;49.40
71621;BME280;59471;42.254;23.102;2023-04-21T09:56:12;95484.63;;;17.22;47.09
71621;BME280;59471;42.254;23.102;2023-04-21T09:58:51;95477.84;;;17.61;49.60
71621;BME280;59471;42.254;23.102;2023-04-21T10:01:18;95482.47;;;18.01;50.41
71621;BME280;59471;42.254;23.102;2023-04-21T10:03:46;95469.66;;;18.21;49.72
71621;BME280;59471;42.254;23.102;2023-04-21T10:06:13;95484.47;;;18.34;47.11
71621;BME280;59471;42.254;23.102;2023-04-21T10:08:39;95474.66;;;18.46;47.53
71621;BME280;59471;42.254;23.102;2023-04-21T10:11:06;95478.81;;;18.42;46.24
71621;BME280;59471;42.254;23.102;2023-04-21T10:13:32;95474.31;;;18.83;46.39
71621;BME280;59471;42.254;23.102;2023-04-21T10:16:06;95471.09;;;18.69;45.10
71621;BME280;59471;42.254;23.102;2023-04-21T10:18:37;95468.22;;;18.83;47.28
71621;BME280;59471;42.254;23.102;2023-04-21T10:21:08;95461.31;;;18.98;42.70
71621;BME280;59471;42.254;23.102;2023-04-21T10:26:09;95450.88;;;18.92;43.39
71621;BME280;59471;42.254;23.102;2023-04-21T10:31:25;95445.25;;;19.56;41.94
71621;BME280;59471;42.254;23.102;2023-04-21T10:34:14;95441.06;;;19.09;43.61
71621;BME280;59471;42.254;23.102;2023-04-21T10:36:46;95446.00;;;18.32;42.90
71621;BME280;59471;42.254;23.102;2023-04-21T10:39:54;95448.84;;;17.43;44.46
71621;BME280;59471;42.254;23.102;2023-04-21T10:42:22;95453.19;;;17.13;46.63
71621;BME280;59471;42.254;23.102;2023-04-21T10:44:52;95453.50;;;16.94;46.92
71621;BME280;59471;42.254;23.102;2023-04-21T10:47:27;95460.16;;;16.84;47.63
71621;BME280;59471;42.254;23.102;2023-04-21T10:50:16;95460.56;;;16.33;49.50
71621;BME280;59471;42.254;23.102;2023-04-21T10:52:45;95471.72;;;16.05;53.94
71621;BME280;59471;42.254;23.102;2023-04-21T10:55:18;95468.75;;;15.94;54.57
71621;BME280;59471;42.254;23.102;2023-04-21T10:57:44;95473.03;;;15.95;56.66
71621;BME280;59471;42.254;23.102;2023-04-21T11:00:14;95477.69;;;15.75;53.62
71621;BME280;59471;42.254;23.102;2023-04-21T11:02:42;95479.34;;;15.44;59.15
71621;BME280;59471;42.254;23.102;2023-04-21T11:05:08;95481.28;;;15.56;60.41
71621;BME280;59471;42.254;23.102;2023-04-21T11:07:35;95482.59;;;15.46;63.73
71621;BME280;59471;42.254;23.102;2023-04-21T11:10:03;95490.22;;;15.04;63.61
71621;BME280;59471;42.254;23.102;2023-04-21T11:12:35;95488.41;;;15.30;64.76
71621;BME280;59471;42.254;23.102;2023-04-21T11:15:04;95488.41;;;15.30;63.60
71621;BME280;59471;42.254;23.102;2023-04-21T11:17:32;95484.19;;;15.47;61.66
71621;BME280;59471;42.254;23.102;2023-04-21T11:19:57;95479.66;;;15.36;64.14
71621;BME280;59471;42.254;23.102;2023-04-21T11:22:24;95464.44;;;15.32;63.54
71621;BME280;59471;42.254;23.102;2023-04-21T11:24:54;95472.34;;;15.32;63.41
71621;BME280;59471;42.254;23.102;2023-04-21T11:27:21;95464.50;;;15.75;66.52
71621;BME280;59471;42.254;23.102;2023-04-21T11:29:48;95469.06;;;16.05;63.78
71621;BME280;59471;42.254;23.102;2023-04-21T11:32:15;95468.66;;;16.38;63.07
71621;BME280;59471;42.254;23.102;2023-04-21T11:34:41;95470.66;;;17.03;58.61
71621;BME280;59471;42.254;23.102;2023-04-21T11:37:07;95461.94;;;16.54;57.79
71621;BME280;59471;42.254;23.102;2023-04-21T11:39:34;95461.41;;;16.82;60.73
71621;BME280;59471;42.254;23.102;2023-04-21T11:41:59;95463.41;;;16.68;59.02
71621;BME280;59471;42.254;23.102;2023-04-21T11:44:36;95463.44;;;17.22;57.22
71621;BME280;59471;42.254;23.102;2023-04-21T11:47:21;95454.16;;;17.66;55.20
71621;BME280;59471;42.254;23.102;2023-04-21T11:50:00;95454.28;;;17.95;48.83
71621;BME280;59471;42.254;23.102;2023-04-21T11:52:30;95453.97;;;18.32;51.71
71621;BME280;59471;42.254;23.102;2023-04-21T11:55:10;95446.00;;;18.32;50.06
71621;BME280;59471;42.254;23.102;2023-04-21T11:57:39;95442.66;;;18.93;47.85
71621;BME280;59471;42.254;23.102;2023-04-21T12:00:07;95440.72;;;18.89;51.01
71621;BME280;59471;42.254;23.102;2023-04-21T12:02:36;95437.97;;;19.51;48.54
71621;BME280;59471;42.254;23.102;2023-04-21T12:07:30;95434.47;;;18.95;45.93
71621;BME280;59471;42.254;23.102;2023-04-21T12:10:20;95431.28;;;18.52;51.73
71621;BME280;59471;42.254;23.102;2023-04-21T12:12:46;95427.94;;;18.28;50.58
71621;BME280;59471;42.254;23.102;2023-04-21T12:15:19;95434.91;;;18.35;49.83
71621;BME280;59471;42.254;23.102;2023-04-21T12:17:49;95425.38;;;18.22;48.96
71621;BME280;59471;42.254;23.102;2023-04-21T12:20:17;95423.19;;;17.78;47.10
71621;BME280;59471;42.254;23.102;2023-04-21T12:22:44;95418.09;;;17.65;49.67
71621;BME280;59471;42.254;23.102;2023-04-21T12:25:10;95427.66;;;17.66;48.88
71621;BME280;59471;42.254;23.102;2023-04-21T12:27:36;95419.81;;;17.71;48.14
71621;BME280;59471;42.254;23.102;2023-04-21T12:30:02;95414.69;;;17.53;48.29
71621;BME280;59471;42.254;23.102;2023-04-21T12:32:28;95410.63;;;17.62;48.50
71621;BME280;59471;42.254;23.102;2023-04-21T12:34:53;95414.72;;;18.05;44.34
71621;BME280;59471;42.254;23.102;2023-04-21T12:37:19;95409.75;;;18.49;45.60
71621;BME280;59471;42.254;23.102;2023-04-21T12:39:45;95411.44;;;18.84;45.09
71621;BME280;59471;42.254;23.102;2023-04-21T12:42:10;95413.31;;;18.71;46.20
71621;BME280;59471;42.254;23.102;2023-04-21T12:44:37;95400.97;;;18.48;46.35
71621;BME280;59471;42.254;23.102;2023-04-21T12:47:03;95397.72;;;18.29;45.65
71621;BME280;59471;42.254;23.102;2023-04-21T12:49:28;95393.81;;;18.49;44.40
71621;BME280;59471;42.254;23.102;2023-04-21T12:51:54;95388.44;;;19.40;45.36
71621;BME280;59471;42.254;23.102;2023-04-21T12:54:20;95383.41;;;19.60;44.30
71621;BME280;59471;42.254;23.102;2023-04-21T12:56:45;95386.34;;;19.42;43.08
71621;BME280;59471;42.254;23.102;2023-04-21T12:59:11;95377.53;;;18.86;44.59
71621;BME280;59471;42.254;23.102;2023-04-21T13:01:37;95378.97;;;18.77;44.81
71621;BME280;59471;42.254;23.102;2023-04-21T13:04:04;95382.09;;;18.73;45.32
71621;BME280;59471;42.254;23.102;2023-04-21T13:06:30;95368.41;;;18.36;46.27
71621;BME280;59471;42.254;23.102;2023-04-21T13:08:57;95369.75;;;17.81;45.35